sensor_id;sensor_type;location;lat;lon;timestamp;P1;P2;P0
56175;PMS5003;63065;51.082;17.016;2023-04-06T00:00:49;136;129;
56175;PMS5003;63065;51.082;17.016;2023-04-06T00:03:15;142;131;
56175;PMS5003;63065;51.082;17.016;2023-04-06T00:05:40;134;123;
56175;PMS5003;63065;51.082;17.016;2023-04-06T00:08:06;140;129;
56175;PMS5003;63065;51.082;17.016;2023-04-06T00:10:31;123;118;
56175;PMS5003;63065;51.082;17.016;2023-04-06T00:12:57;131;120;
56175;PMS5003;63065;51.082;17.016;2023-04-06T00:15:22;127;119;
56175;PMS5003;63065;51.082;17.016;2023-04-06T00:17:48;130;121;
56175;PMS5003;63065;51.082;17.016;2023-04-06T00:20:13;135;122;
56175;PMS5003;63065;51.082;17.016;2023-04-06T00:22:38;125;119;
56175;PMS5003;63065;51.082;17.016;2023-04-06T00:25:05;129;121;
56175;PMS5003;63065;51.082;17.016;2023-04-06T00:27:29;125;116;
56175;PMS5003;63065;51.082;17.016;2023-04-06T00:29:54;127;119;
56175;PMS5003;63065;51.082;17.016;2023-04-06T00:32:19;127;117;
56175;PMS5003;63065;51.082;17.016;2023-04-06T00:34:44;124;117;
56175;PMS5003;63065;51.082;17.016;2023-04-06T00:37:10;136;119;
56175;PMS5003;63065;51.082;17.016;2023-04-06T00:39:35;121;116;
56175;PMS5003;63065;51.082;17.016;2023-04-06T00:42:00;119;108;
56175;PMS5003;63065;51.082;17.016;2023-04-06T00:44:26;117;113;
56175;PMS5003;63065;51.082;17.016;2023-04-06T00:46:51;115;106;
56175;PMS5003;63065;51.082;17.016;2023-04-06T00:49:17;122;112;
56175;PMS5003;63065;51.082;17.016;2023-04-06T00:51:44;127;120;
56175;PMS5003;63065;51.082;17.016;2023-04-06T00:54:08;129;117;
56175;PMS5003;63065;51.082;17.016;2023-04-06T00:56:34;120;110;
56175;PMS5003;63065;51.082;17.016;2023-04-06T00:58:59;124;112;
56175;PMS5003;63065;51.082;17.016;2023-04-06T01:01:24;120;115;
56175;PMS5003;63065;51.082;17.016;2023-04-06T01:03:50;129;116;
56175;PMS5003;63065;51.082;17.016;2023-04-06T01:06:15;136;125;
56175;PMS5003;63065;51.082;17.016;2023-04-06T01:08:40;121;112;
56175;PMS5003;63065;51.082;17.016;2023-04-06T01:11:05;116;111;
56175;PMS5003;63065;51.082;17.016;2023-04-06T01:13:31;122;117;
56175;PMS5003;63065;51.082;17.016;2023-04-06T01:15:56;129;118;
56175;PMS5003;63065;51.082;17.016;2023-04-06T01:18:25;127;115;
56175;PMS5003;63065;51.082;17.016;2023-04-06T01:20:47;130;121;
56175;PMS5003;63065;51.082;17.016;2023-04-06T01:23:13;135;120;
56175;PMS5003;63065;51.082;17.016;2023-04-06T01:25:38;128;119;
56175;PMS5003;63065;51.082;17.016;2023-04-06T01:28:03;131;122;
56175;PMS5003;63065;51.082;17.016;2023-04-06T01:30:29;125;120;
56175;PMS5003;63065;51.082;17.016;2023-04-06T01:32:54;129;121;
56175;PMS5003;63065;51.082;17.016;2023-04-06T01:35:19;130;122;
56175;PMS5003;63065;51.082;17.016;2023-04-06T01:37:45;126;120;
56175;PMS5003;63065;51.082;17.016;2023-04-06T01:40:11;127;115;
56175;PMS5003;63065;51.082;17.016;2023-04-06T01:42:36;139;121;
56175;PMS5003;63065;51.082;17.016;2023-04-06T01:45:02;140;124;
56175;PMS5003;63065;51.082;17.016;2023-04-06T01:47:27;136;123;
56175;PMS5003;63065;51.082;17.016;2023-04-06T01:49:52;142;127;
56175;PMS5003;63065;51.082;17.016;2023-04-06T01:52:18;131;122;
56175;PMS5003;63065;51.082;17.016;2023-04-06T01:54:43;131;120;
56175;PMS5003;63065;51.082;17.016;2023-04-06T01:57:09;139;131;
56175;PMS5003;63065;51.082;17.016;2023-04-06T01:59:34;139;129;
56175;PMS5003;63065;51.082;17.016;2023-04-06T02:01:59;136;129;
56175;PMS5003;63065;51.082;17.016;2023-04-06T02:04:24;135;122;
56175;PMS5003;63065;51.082;17.016;2023-04-06T02:06:50;137;131;
56175;PMS5003;63065;51.082;17.016;2023-04-06T02:09:15;142;131;
56175;PMS5003;63065;51.082;17.016;2023-04-06T02:11:41;137;122;
56175;PMS5003;63065;51.082;17.016;2023-04-06T02:14:07;143;131;
56175;PMS5003;63065;51.082;17.016;2023-04-06T02:16:32;143;128;
56175;PMS5003;63065;51.082;17.016;2023-04-06T02:18:58;136;122;
56175;PMS5003;63065;51.082;17.016;2023-04-06T02:21:23;127;118;
56175;PMS5003;63065;51.082;17.016;2023-04-06T02:23:48;141;126;
56175;PMS5003;63065;51.082;17.016;2023-04-06T02:26:14;142;131;
56175;PMS5003;63065;51.082;17.016;2023-04-06T02:28:40;148;135;
56175;PMS5003;63065;51.082;17.016;2023-04-06T02:31:05;134;128;
56175;PMS5003;63065;51.082;17.016;2023-04-06T02:33:30;143;133;
56175;PMS5003;63065;51.082;17.016;2023-04-06T02:35:56;151;138;
56175;PMS5003;63065;51.082;17.016;2023-04-06T02:38:21;131;124;
56175;PMS5003;63065;51.082;17.016;2023-04-06T02:40:47;135;127;
56175;PMS5003;63065;51.082;17.016;2023-04-06T02:43:12;150;139;
56175;PMS5003;63065;51.082;17.016;2023-04-06T02:45:38;158;138;
56175;PMS5003;63065;51.082;17.016;2023-04-06T02:48:03;154;140;
56175;PMS5003;63065;51.082;17.016;2023-04-06T02:50:28;148;132;
56175;PMS5003;63065;51.082;17.016;2023-04-06T02:52:54;156;137;
56175;PMS5003;63065;51.082;17.016;2023-04-06T02:55:20;156;140;
56175;PMS5003;63065;51.082;17.016;2023-04-06T02:57:45;151;135;
56175;PMS5003;63065;51.082;17.016;2023-04-06T03:00:11;153;132;
56175;PMS5003;63065;51.082;17.016;2023-04-06T03:02:36;139;137;
56175;PMS5003;63065;51.082;17.016;2023-04-06T03:05:02;140;136;
56175;PMS5003;63065;51.082;17.016;2023-04-06T03:07:27;137;125;
56175;PMS5003;63065;51.082;17.016;2023-04-06T03:09:52;139;129;
56175;PMS5003;63065;51.082;17.016;2023-04-06T03:12:18;150;139;
56175;PMS5003;63065;51.082;17.016;2023-04-06T03:14:43;147;139;
56175;PMS5003;63065;51.082;17.016;2023-04-06T03:17:08;136;128;
56175;PMS5003;63065;51.082;17.016;2023-04-06T03:19:34;145;126;
56175;PMS5003;63065;51.082;17.016;2023-04-06T03:22:00;131;127;
56175;PMS5003;63065;51.082;17.016;2023-04-06T03:24:25;150;129;
56175;PMS5003;63065;51.082;17.016;2023-04-06T03:26:50;154;136;
56175;PMS5003;63065;51.082;17.016;2023-04-06T03:29:16;142;128;
56175;PMS5003;63065;51.082;17.016;2023-04-06T03:31:41;155;138;
56175;PMS5003;63065;51.082;17.016;2023-04-06T03:34:07;138;121;
56175;PMS5003;63065;51.082;17.016;2023-04-06T03:36:33;138;129;
56175;PMS5003;63065;51.082;17.016;2023-04-06T03:38:58;128;122;
56175;PMS5003;63065;51.082;17.016;2023-04-06T03:41:23;145;130;
56175;PMS5003;63065;51.082;17.016;2023-04-06T03:43:48;140;131;
56175;PMS5003;63065;51.082;17.016;2023-04-06T03:46:14;141;132;
56175;PMS5003;63065;51.082;17.016;2023-04-06T03:48:40;139;126;
56175;PMS5003;63065;51.082;17.016;2023-04-06T03:51:05;138;122;
56175;PMS5003;63065;51.082;17.016;2023-04-06T03:53:30;127;120;
56175;PMS5003;63065;51.082;17.016;2023-04-06T03:55:56;145;135;
56175;PMS5003;63065;51.082;17.016;2023-04-06T03:58:22;134;121;
56175;PMS5003;63065;51.082;17.016;2023-04-06T04:00:47;143;127;
56175;PMS5003;63065;51.082;17.016;2023-04-06T04:03:12;137;128;
56175;PMS5003;63065;51.082;17.016;2023-04-06T04:05:37;130;119;
56175;PMS5003;63065;51.082;17.016;2023-04-06T04:08:03;138;126;
56175;PMS5003;63065;51.082;17.016;2023-04-06T04:10:28;145;129;
56175;PMS5003;63065;51.082;17.016;2023-04-06T04:12:53;126;118;
56175;PMS5003;63065;51.082;17.016;2023-04-06T04:15:18;143;126;
56175;PMS5003;63065;51.082;17.016;2023-04-06T04:17:44;131;121;
56175;PMS5003;63065;51.082;17.016;2023-04-06T04:20:10;149;137;
56175;PMS5003;63065;51.082;17.016;2023-04-06T04:22:35;138;126;
56175;PMS5003;63065;51.082;17.016;2023-04-06T04:25:00;130;126;
56175;PMS5003;63065;51.082;17.016;2023-04-06T04:27:26;133;127;
56175;PMS5003;63065;51.082;17.016;2023-04-06T04:29:51;136;127;
56175;PMS5003;63065;51.082;17.016;2023-04-06T04:32:17;161;133;
56175;PMS5003;63065;51.082;17.016;2023-04-06T04:34:43;150;135;
56175;PMS5003;63065;51.082;17.016;2023-04-06T04:37:08;152;137;
56175;PMS5003;63065;51.082;17.016;2023-04-06T04:39:34;149;131;
56175;PMS5003;63065;51.082;17.016;2023-04-06T04:41:59;138;124;
56175;PMS5003;63065;51.082;17.016;2023-04-06T04:44:25;150;141;
56175;PMS5003;63065;51.082;17.016;2023-04-06T04:46:50;150;134;
56175;PMS5003;63065;51.082;17.016;2023-04-06T04:49:16;137;127;
56175;PMS5003;63065;51.082;17.016;2023-04-06T04:51:41;139;132;
56175;PMS5003;63065;51.082;17.016;2023-04-06T04:54:06;161;139;
56175;PMS5003;63065;51.082;17.016;2023-04-06T04:56:31;147;139;
56175;PMS5003;63065;51.082;17.016;2023-04-06T04:58:57;155;139;
56175;PMS5003;63065;51.082;17.016;2023-04-06T05:01:23;141;126;
56175;PMS5003;63065;51.082;17.016;2023-04-06T05:03:48;144;134;
56175;PMS5003;63065;51.082;17.016;2023-04-06T05:06:13;147;137;
56175;PMS5003;63065;51.082;17.016;2023-04-06T05:08:38;159;141;
56175;PMS5003;63065;51.082;17.016;2023-04-06T05:11:04;159;141;
56175;PMS5003;63065;51.082;17.016;2023-04-06T05:13:29;152;143;
56175;PMS5003;63065;51.082;17.016;2023-04-06T05:15:55;141;135;
56175;PMS5003;63065;51.082;17.016;2023-04-06T05:18:20;156;133;
56175;PMS5003;63065;51.082;17.016;2023-04-06T05:20:46;164;147;
56175;PMS5003;63065;51.082;17.016;2023-04-06T05:23:12;155;141;
56175;PMS5003;63065;51.082;17.016;2023-04-06T05:25:37;162;150;
56175;PMS5003;63065;51.082;17.016;2023-04-06T05:28:02;153;142;
56175;PMS5003;63065;51.082;17.016;2023-04-06T05:30:28;156;139;
56175;PMS5003;63065;51.082;17.016;2023-04-06T05:32:53;152;142;
56175;PMS5003;63065;51.082;17.016;2023-04-06T05:35:19;143;140;
56175;PMS5003;63065;51.082;17.016;2023-04-06T05:37:45;159;142;
56175;PMS5003;63065;51.082;17.016;2023-04-06T05:40:10;145;136;
56175;PMS5003;63065;51.082;17.016;2023-04-06T05:42:36;165;144;
56175;PMS5003;63065;51.082;17.016;2023-04-06T05:45:01;163;151;
56175;PMS5003;63065;51.082;17.016;2023-04-06T05:47:27;171;153;
56175;PMS5003;63065;51.082;17.016;2023-04-06T05:49:52;160;142;
56175;PMS5003;63065;51.082;17.016;2023-04-06T05:52:17;165;152;
56175;PMS5003;63065;51.082;17.016;2023-04-06T05:54:43;159;147;
56175;PMS5003;63065;51.082;17.016;2023-04-06T05:57:08;186;165;
56175;PMS5003;63065;51.082;17.016;2023-04-06T05:59:33;162;148;
56175;PMS5003;63065;51.082;17.016;2023-04-06T06:01:59;169;155;
56175;PMS5003;63065;51.082;17.016;2023-04-06T06:04:25;165;161;
56175;PMS5003;63065;51.082;17.016;2023-04-06T06:06:50;162;154;
56175;PMS5003;63065;51.082;17.016;2023-04-06T06:09:16;165;156;
56175;PMS5003;63065;51.082;17.016;2023-04-06T06:11:41;168;162;
56175;PMS5003;63065;51.082;17.016;2023-04-06T06:14:07;176;157;
56175;PMS5003;63065;51.082;17.016;2023-04-06T06:16:32;173;149;
56175;PMS5003;63065;51.082;17.016;2023-04-06T06:18:58;174;157;
56175;PMS5003;63065;51.082;17.016;2023-04-06T06:21:23;178;158;
56175;PMS5003;63065;51.082;17.016;2023-04-06T06:23:49;152;142;
56175;PMS5003;63065;51.082;17.016;2023-04-06T06:26:13;164;155;
56175;PMS5003;63065;51.082;17.016;2023-04-06T06:28:39;154;144;
56175;PMS5003;63065;51.082;17.016;2023-04-06T06:31:04;154;149;
56175;PMS5003;63065;51.082;17.016;2023-04-06T06:33:30;162;149;
56175;PMS5003;63065;51.082;17.016;2023-04-06T06:35:55;146;129;
56175;PMS5003;63065;51.082;17.016;2023-04-06T06:38:21;137;125;
56175;PMS5003;63065;51.082;17.016;2023-04-06T06:40:47;134;129;
56175;PMS5003;63065;51.082;17.016;2023-04-06T06:43:12;143;126;
56175;PMS5003;63065;51.082;17.016;2023-04-06T06:45:37;137;131;
56175;PMS5003;63065;51.082;17.016;2023-04-06T06:48:03;139;124;
56175;PMS5003;63065;51.082;17.016;2023-04-06T06:50:29;141;131;
56175;PMS5003;63065;51.082;17.016;2023-04-06T06:52:55;132;119;
56175;PMS5003;63065;51.082;17.016;2023-04-06T06:55:20;140;131;
56175;PMS5003;63065;51.082;17.016;2023-04-06T06:57:46;124;118;
56175;PMS5003;63065;51.082;17.016;2023-04-06T07:00:12;135;125;
56175;PMS5003;63065;51.082;17.016;2023-04-06T07:02:37;128;113;
56175;PMS5003;63065;51.082;17.016;2023-04-06T07:05:02;135;126;
56175;PMS5003;63065;51.082;17.016;2023-04-06T07:07:28;127;117;
56175;PMS5003;63065;51.082;17.016;2023-04-06T07:09:53;137;124;
56175;PMS5003;63065;51.082;17.016;2023-04-06T07:12:18;137;127;
56175;PMS5003;63065;51.082;17.016;2023-04-06T07:14:44;139;125;
56175;PMS5003;63065;51.082;17.016;2023-04-06T07:17:10;146;133;
56175;PMS5003;63065;51.082;17.016;2023-04-06T07:19:35;143;131;
56175;PMS5003;63065;51.082;17.016;2023-04-06T07:22:01;140;132;
56175;PMS5003;63065;51.082;17.016;2023-04-06T07:24:28;140;124;
56175;PMS5003;63065;51.082;17.016;2023-04-06T07:26:52;124;114;
56175;PMS5003;63065;51.082;17.016;2023-04-06T07:29:18;122;113;
56175;PMS5003;63065;51.082;17.016;2023-04-06T07:31:44;132;118;
56175;PMS5003;63065;51.082;17.016;2023-04-06T07:36:35;135;128;
56175;PMS5003;63065;51.082;17.016;2023-04-06T07:39:01;125;118;
56175;PMS5003;63065;51.082;17.016;2023-04-06T07:41:26;119;112;
56175;PMS5003;63065;51.082;17.016;2023-04-06T07:43:52;130;115;
56175;PMS5003;63065;51.082;17.016;2023-04-06T07:46:18;123;115;
56175;PMS5003;63065;51.082;17.016;2023-04-06T07:48:43;131;122;
56175;PMS5003;63065;51.082;17.016;2023-04-06T07:51:08;123;119;
56175;PMS5003;63065;51.082;17.016;2023-04-06T07:53:34;129;118;
56175;PMS5003;63065;51.082;17.016;2023-04-06T07:55:59;98;91;
56175;PMS5003;63065;51.082;17.016;2023-04-06T07:58:25;101;94;
56175;PMS5003;63065;51.082;17.016;2023-04-06T08:00:50;103;96;
56175;PMS5003;63065;51.082;17.016;2023-04-06T08:03:15;96;92;
56175;PMS5003;63065;51.082;17.016;2023-04-06T08:05:41;81;73;
56175;PMS5003;63065;51.082;17.016;2023-04-06T08:08:06;84;81;
56175;PMS5003;63065;51.082;17.016;2023-04-06T08:10:31;75;69;
56175;PMS5003;63065;51.082;17.016;2023-04-06T08:12:57;77;70;
56175;PMS5003;63065;51.082;17.016;2023-04-06T08:15:23;73;69;
56175;PMS5003;63065;51.082;17.016;2023-04-06T08:17:48;56;53;
56175;PMS5003;63065;51.082;17.016;2023-04-06T08:20:14;63;61;
56175;PMS5003;63065;51.082;17.016;2023-04-06T08:22:39;58;56;
56175;PMS5003;63065;51.082;17.016;2023-04-06T08:25:05;64;61;
56175;PMS5003;63065;51.082;17.016;2023-04-06T08:27:30;71;62;
56175;PMS5003;63065;51.082;17.016;2023-04-06T08:29:55;61;59;
56175;PMS5003;63065;51.082;17.016;2023-04-06T08:32:21;61;56;
56175;PMS5003;63065;51.082;17.016;2023-04-06T08:34:46;65;58;
56175;PMS5003;63065;51.082;17.016;2023-04-06T08:37:11;49;45;
56175;PMS5003;63065;51.082;17.016;2023-04-06T08:39:37;46;42;
56175;PMS5003;63065;51.082;17.016;2023-04-06T08:42:02;47;44;
56175;PMS5003;63065;51.082;17.016;2023-04-06T08:44:27;47;40;
56175;PMS5003;63065;51.082;17.016;2023-04-06T08:46:53;45;42;
56175;PMS5003;63065;51.082;17.016;2023-04-06T08:49:18;53;49;
56175;PMS5003;63065;51.082;17.016;2023-04-06T08:51:44;53;49;
56175;PMS5003;63065;51.082;17.016;2023-04-06T08:54:09;49;45;
56175;PMS5003;63065;51.082;17.016;2023-04-06T08:56:37;43;37;
56175;PMS5003;63065;51.082;17.016;2023-04-06T08:59:00;37;34;
56175;PMS5003;63065;51.082;17.016;2023-04-06T09:01:26;46;40;
56175;PMS5003;63065;51.082;17.016;2023-04-06T09:03:50;39;37;
56175;PMS5003;63065;51.082;17.016;2023-04-06T09:06:16;40;38;
56175;PMS5003;63065;51.082;17.016;2023-04-06T09:08:41;46;41;
56175;PMS5003;63065;51.082;17.016;2023-04-06T09:11:07;48;43;
56175;PMS5003;63065;51.082;17.016;2023-04-06T09:15:58;45;45;
56175;PMS5003;63065;51.082;17.016;2023-04-06T09:18:27;50;43;
56175;PMS5003;63065;51.082;17.016;2023-04-06T09:23:17;43;37;
56175;PMS5003;63065;51.082;17.016;2023-04-06T09:25:39;42;40;
56175;PMS5003;63065;51.082;17.016;2023-04-06T09:28:04;41;39;
56175;PMS5003;63065;51.082;17.016;2023-04-06T09:30:30;44;39;
56175;PMS5003;63065;51.082;17.016;2023-04-06T09:32:56;53;46;
56175;PMS5003;63065;51.082;17.016;2023-04-06T09:35:21;44;41;
56175;PMS5003;63065;51.082;17.016;2023-04-06T09:37:46;44;41;
56175;PMS5003;63065;51.082;17.016;2023-04-06T09:40:12;39;37;
56175;PMS5003;63065;51.082;17.016;2023-04-06T09:42:37;37;35;
56175;PMS5003;63065;51.082;17.016;2023-04-06T09:45:02;38;38;
56175;PMS5003;63065;51.082;17.016;2023-04-06T09:47:27;46;44;
56175;PMS5003;63065;51.082;17.016;2023-04-06T09:49:55;40;37;
56175;PMS5003;63065;51.082;17.016;2023-04-06T09:52:18;38;36;
56175;PMS5003;63065;51.082;17.016;2023-04-06T09:54:43;32;29;
56175;PMS5003;63065;51.082;17.016;2023-04-06T09:57:11;33;31;
56175;PMS5003;63065;51.082;17.016;2023-04-06T10:02:00;30;29;
56175;PMS5003;63065;51.082;17.016;2023-04-06T10:04:29;31;31;
56175;PMS5003;63065;51.082;17.016;2023-04-06T10:06:51;29;29;
56175;PMS5003;63065;51.082;17.016;2023-04-06T10:09:17;31;29;
56175;PMS5003;63065;51.082;17.016;2023-04-06T10:11:42;30;29;
56175;PMS5003;63065;51.082;17.016;2023-04-06T10:14:08;32;30;
56175;PMS5003;63065;51.082;17.016;2023-04-06T10:16:34;30;30;
56175;PMS5003;63065;51.082;17.016;2023-04-06T10:19:02;29;29;
56175;PMS5003;63065;51.082;17.016;2023-04-06T10:21:25;26;25;
56175;PMS5003;63065;51.082;17.016;2023-04-06T10:23:51;30;28;
56175;PMS5003;63065;51.082;17.016;2023-04-06T10:26:17;39;37;
56175;PMS5003;63065;51.082;17.016;2023-04-06T10:28:42;36;33;
56175;PMS5003;63065;51.082;17.016;2023-04-06T10:31:07;29;28;
56175;PMS5003;63065;51.082;17.016;2023-04-06T10:33:32;35;32;
56175;PMS5003;63065;51.082;17.016;2023-04-06T10:35:57;31;31;
56175;PMS5003;63065;51.082;17.016;2023-04-06T10:40:48;34;32;
56175;PMS5003;63065;51.082;17.016;2023-04-06T10:43:17;28;28;
56175;PMS5003;63065;51.082;17.016;2023-04-06T10:45:40;31;30;
56175;PMS5003;63065;51.082;17.016;2023-04-06T10:50:31;25;24;
56175;PMS5003;63065;51.082;17.016;2023-04-06T10:52:58;30;28;
56175;PMS5003;63065;51.082;17.016;2023-04-06T10:55:23;23;22;
56175;PMS5003;63065;51.082;17.016;2023-04-06T10:57:48;29;26;
56175;PMS5003;63065;51.082;17.016;2023-04-06T11:00:14;27;27;
56175;PMS5003;63065;51.082;17.016;2023-04-06T11:02:39;25;25;
56175;PMS5003;63065;51.082;17.016;2023-04-06T11:05:05;27;26;
56175;PMS5003;63065;51.082;17.016;2023-04-06T11:07:30;26;26;
56175;PMS5003;63065;51.082;17.016;2023-04-06T11:09:55;24;21;
56175;PMS5003;63065;51.082;17.016;2023-04-06T11:12:22;21;21;
56175;PMS5003;63065;51.082;17.016;2023-04-06T11:17:12;24;22;
56175;PMS5003;63065;51.082;17.016;2023-04-06T11:19:38;27;24;
56175;PMS5003;63065;51.082;17.016;2023-04-06T11:22:06;27;27;
56175;PMS5003;63065;51.082;17.016;2023-04-06T11:24:28;27;25;
56175;PMS5003;63065;51.082;17.016;2023-04-06T11:26:54;31;24;
56175;PMS5003;63065;51.082;17.016;2023-04-06T11:29:19;27;25;
56175;PMS5003;63065;51.082;17.016;2023-04-06T11:31:46;26;26;
56175;PMS5003;63065;51.082;17.016;2023-04-06T11:34:11;38;32;
56175;PMS5003;63065;51.082;17.016;2023-04-06T11:36:36;28;28;
56175;PMS5003;63065;51.082;17.016;2023-04-06T11:39:02;32;32;
56175;PMS5003;63065;51.082;17.016;2023-04-06T11:41:27;29;27;
56175;PMS5003;63065;51.082;17.016;2023-04-06T11:43:54;26;26;
56175;PMS5003;63065;51.082;17.016;2023-04-06T11:46:18;30;28;
56175;PMS5003;63065;51.082;17.016;2023-04-06T11:48:45;26;26;
56175;PMS5003;63065;51.082;17.016;2023-04-06T11:51:09;29;29;
56175;PMS5003;63065;51.082;17.016;2023-04-06T11:56:00;35;33;
56175;PMS5003;63065;51.082;17.016;2023-04-06T11:58:25;29;28;
56175;PMS5003;63065;51.082;17.016;2023-04-06T12:00:51;31;29;
56175;PMS5003;63065;51.082;17.016;2023-04-06T12:03:17;36;31;
56175;PMS5003;63065;51.082;17.016;2023-04-06T12:05:43;28;25;
56175;PMS5003;63065;51.082;17.016;2023-04-06T12:08:07;28;27;
56175;PMS5003;63065;51.082;17.016;2023-04-06T12:10:32;31;30;
56175;PMS5003;63065;51.082;17.016;2023-04-06T12:12:58;30;29;
56175;PMS5003;63065;51.082;17.016;2023-04-06T12:15:24;31;30;
56175;PMS5003;63065;51.082;17.016;2023-04-06T12:17:50;33;31;
56175;PMS5003;63065;51.082;17.016;2023-04-06T12:20:16;31;29;
56175;PMS5003;63065;51.082;17.016;2023-04-06T12:22:41;37;32;
56175;PMS5003;63065;51.082;17.016;2023-04-06T12:25:07;26;26;
56175;PMS5003;63065;51.082;17.016;2023-04-06T12:27:31;33;32;
56175;PMS5003;63065;51.082;17.016;2023-04-06T12:29:57;29;27;
56175;PMS5003;63065;51.082;17.016;2023-04-06T12:32:23;32;31;
56175;PMS5003;63065;51.082;17.016;2023-04-06T12:34:48;37;34;
56175;PMS5003;63065;51.082;17.016;2023-04-06T12:37:14;32;30;
56175;PMS5003;63065;51.082;17.016;2023-04-06T12:39:40;32;30;
56175;PMS5003;63065;51.082;17.016;2023-04-06T12:42:05;28;28;
56175;PMS5003;63065;51.082;17.016;2023-04-06T12:44:30;32;28;
56175;PMS5003;63065;51.082;17.016;2023-04-06T12:46:55;27;26;
56175;PMS5003;63065;51.082;17.016;2023-04-06T12:49:22;35;34;
56175;PMS5003;63065;51.082;17.016;2023-04-06T12:51:46;34;30;
56175;PMS5003;63065;51.082;17.016;2023-04-06T12:54:12;30;30;
56175;PMS5003;63065;51.082;17.016;2023-04-06T12:56:38;32;30;
56175;PMS5003;63065;51.082;17.016;2023-04-06T12:59:03;30;30;
56175;PMS5003;63065;51.082;17.016;2023-04-06T13:01:29;34;32;
56175;PMS5003;63065;51.082;17.016;2023-04-06T13:03:55;33;31;
56175;PMS5003;63065;51.082;17.016;2023-04-06T13:06:20;32;30;
56175;PMS5003;63065;51.082;17.016;2023-04-06T13:08:46;31;29;
56175;PMS5003;63065;51.082;17.016;2023-04-06T13:11:11;33;30;
56175;PMS5003;63065;51.082;17.016;2023-04-06T13:13:36;34;31;
56175;PMS5003;63065;51.082;17.016;2023-04-06T13:16:03;32;31;
56175;PMS5003;63065;51.082;17.016;2023-04-06T13:18:27;28;27;
56175;PMS5003;63065;51.082;17.016;2023-04-06T13:20:53;34;34;
56175;PMS5003;63065;51.082;17.016;2023-04-06T13:23:18;29;28;
56175;PMS5003;63065;51.082;17.016;2023-04-06T13:25:44;28;25;
56175;PMS5003;63065;51.082;17.016;2023-04-06T13:28:09;28;27;
56175;PMS5003;63065;51.082;17.016;2023-04-06T13:30:34;27;24;
56175;PMS5003;63065;51.082;17.016;2023-04-06T13:32:59;25;25;
56175;PMS5003;63065;51.082;17.016;2023-04-06T13:35:25;28;26;
56175;PMS5003;63065;51.082;17.016;2023-04-06T13:37:50;30;26;
56175;PMS5003;63065;51.082;17.016;2023-04-06T13:40:15;25;25;
56175;PMS5003;63065;51.082;17.016;2023-04-06T13:42:41;29;26;
56175;PMS5003;63065;51.082;17.016;2023-04-06T13:45:06;28;27;
56175;PMS5003;63065;51.082;17.016;2023-04-06T13:47:31;25;24;
56175;PMS5003;63065;51.082;17.016;2023-04-06T13:49:57;23;23;
56175;PMS5003;63065;51.082;17.016;2023-04-06T13:52:22;23;21;
56175;PMS5003;63065;51.082;17.016;2023-04-06T13:54:47;27;27;
56175;PMS5003;63065;51.082;17.016;2023-04-06T13:57:13;30;28;
56175;PMS5003;63065;51.082;17.016;2023-04-06T13:59:39;35;32;
56175;PMS5003;63065;51.082;17.016;2023-04-06T14:02:05;30;29;
56175;PMS5003;63065;51.082;17.016;2023-04-06T14:04:29;28;26;
56175;PMS5003;63065;51.082;17.016;2023-04-06T14:06:55;28;28;
56175;PMS5003;63065;51.082;17.016;2023-04-06T14:09:20;32;30;
56175;PMS5003;63065;51.082;17.016;2023-04-06T14:11:45;31;29;
56175;PMS5003;63065;51.082;17.016;2023-04-06T14:14:11;35;32;
56175;PMS5003;63065;51.082;17.016;2023-04-06T14:16:36;34;31;
56175;PMS5003;63065;51.082;17.016;2023-04-06T14:19:01;34;31;
56175;PMS5003;63065;51.082;17.016;2023-04-06T14:21:26;32;31;
56175;PMS5003;63065;51.082;17.016;2023-04-06T14:23:52;35;32;
56175;PMS5003;63065;51.082;17.016;2023-04-06T14:26:18;30;26;
56175;PMS5003;63065;51.082;17.016;2023-04-06T14:28:44;37;33;
56175;PMS5003;63065;51.082;17.016;2023-04-06T14:31:10;32;28;
56175;PMS5003;63065;51.082;17.016;2023-04-06T14:33:35;31;29;
56175;PMS5003;63065;51.082;17.016;2023-04-06T14:36:02;32;31;
56175;PMS5003;63065;51.082;17.016;2023-04-06T14:38:26;33;29;
56175;PMS5003;63065;51.082;17.016;2023-04-06T14:40:51;32;28;
56175;PMS5003;63065;51.082;17.016;2023-04-06T14:43:17;36;34;
56175;PMS5003;63065;51.082;17.016;2023-04-06T14:45:42;38;33;
56175;PMS5003;63065;51.082;17.016;2023-04-06T14:48:08;40;38;
56175;PMS5003;63065;51.082;17.016;2023-04-06T14:50:34;34;31;
56175;PMS5003;63065;51.082;17.016;2023-04-06T14:52:59;30;29;
56175;PMS5003;63065;51.082;17.016;2023-04-06T14:55:25;28;28;
56175;PMS5003;63065;51.082;17.016;2023-04-06T14:57:51;32;26;
56175;PMS5003;63065;51.082;17.016;2023-04-06T15:00:16;30;27;
56175;PMS5003;63065;51.082;17.016;2023-04-06T15:02:41;41;36;
56175;PMS5003;63065;51.082;17.016;2023-04-06T15:05:07;37;34;
56175;PMS5003;63065;51.082;17.016;2023-04-06T15:07:32;33;32;
56175;PMS5003;63065;51.082;17.016;2023-04-06T15:09:57;34;32;
56175;PMS5003;63065;51.082;17.016;2023-04-06T15:12:23;35;33;
56175;PMS5003;63065;51.082;17.016;2023-04-06T15:14:48;27;27;
56175;PMS5003;63065;51.082;17.016;2023-04-06T15:17:13;31;27;
56175;PMS5003;63065;51.082;17.016;2023-04-06T15:19:38;29;28;
56175;PMS5003;63065;51.082;17.016;2023-04-06T15:22:03;34;30;
56175;PMS5003;63065;51.082;17.016;2023-04-06T15:24:29;27;27;
56175;PMS5003;63065;51.082;17.016;2023-04-06T15:26:54;31;29;
56175;PMS5003;63065;51.082;17.016;2023-04-06T15:29:19;28;26;
56175;PMS5003;63065;51.082;17.016;2023-04-06T15:31:45;29;26;
56175;PMS5003;63065;51.082;17.016;2023-04-06T15:34:10;34;34;
56175;PMS5003;63065;51.082;17.016;2023-04-06T15:36:36;35;31;
56175;PMS5003;63065;51.082;17.016;2023-04-06T15:39:01;28;27;
56175;PMS5003;63065;51.082;17.016;2023-04-06T15:41:26;29;28;
56175;PMS5003;63065;51.082;17.016;2023-04-06T15:43:52;26;26;
56175;PMS5003;63065;51.082;17.016;2023-04-06T15:46:17;29;26;
56175;PMS5003;63065;51.082;17.016;2023-04-06T15:48:43;27;24;
56175;PMS5003;63065;51.082;17.016;2023-04-06T15:51:09;28;28;
56175;PMS5003;63065;51.082;17.016;2023-04-06T15:53:34;28;25;